Terminal Aerodrome Forecast
Issued by NWS Charleston, WV

Current Version | Previous Version | Graphics & Text | Print | Product List | Glossary On
Versions: 1 2 3 4 5 6 7 8 9 10 11 12 13 14 15 16 17 18 19 20 21
000
FTUS41 KRLX 251500 AAA
TAFHTS
TAF AMD
KHTS 251535Z 2516/2612 24010G15KT P6SM BKN025
     FM251900 24007KT P6SM SCT040
     FM260000 VRB03KT P6SM FEW060=

USA.gov is the U.S. government's official web portal to all federal, state and local government web resources and services.